logo liguriameteo

Diretta Meteo Cuneo-Levaldigi, Italialunedì 22 luglio ore 12:50

Mappa
Sereno 29 °C Sereno 24 Ore: T.min 16 T.max 29
Ponente Nord Km/h 5.5 Punto di rugiada: 15 °C Umidità: 42% Visibilità: 10 Km
Il sole sorge alle: 06:04 Il sole tramonta alle: 21:07
22 Luglio 2024 12:50 tempo osservato: Sereno Sereno 29 42 1014 vento: Nord N 5.5
22 Luglio 2024 12:20 tempo osservato: Sereno Sereno 29 45 1014 vento: Nord N 3.7
22 Luglio 2024 11:50 tempo osservato: Sereno Sereno 28 48 1014 vento: Nord N 5.5
22 Luglio 2024 11:20 tempo osservato: Sereno Sereno 28 45 1014 vento: Nord N 5.5
22 Luglio 2024 10:50 tempo osservato: Sereno Sereno 27 50 1014 vento: Nord N 3.7
22 Luglio 2024 10:20 tempo osservato: Sereno Sereno 27 57 1014 vento: Nord N 1.8
22 Luglio 2024 09:50 tempo osservato: Sereno Sereno 26 61 1014 vento: Nord N 5.5
22 Luglio 2024 09:20 tempo osservato: Sereno Sereno 26 61 1014 vento: Nord N 1.8
22 Luglio 2024 08:50 tempo osservato: Sereno Sereno 23 68 1014 vento: Nord N 3.7
22 Luglio 2024 08:20 tempo osservato: Sereno Sereno 21 73 1013 vento: Nord S/SO 9.3
22 Luglio 2024 07:50 tempo osservato: Sereno Sereno 20 72 1013 vento: Nord S/SO 7.4
22 Luglio 2024 07:20 tempo osservato: Sereno Sereno 19 77 1013 vento: Nord SO 11.1
22 Luglio 2024 06:50 tempo osservato: Sereno Sereno 17 82 1013 vento: Nord S/SO 11.1
22 Luglio 2024 06:20 tempo osservato: Sereno Sereno 17 88 1013 vento: Nord S/SO 11.1
22 Luglio 2024 05:50 tempo osservato: Sereno Sereno 17 88 1013 vento: Nord S/SO 11.1
22 Luglio 2024 05:20 tempo osservato: Sereno Sereno 16 100 1013 vento: Nord S 9.3
22 Luglio 2024 04:50 tempo osservato: Sereno Sereno 18 88 1012 vento: Nord O 7.4
22 Luglio 2024 04:20 tempo osservato: Sereno Sereno 17 93 1013 vento: Nord O/SO 7.4
22 Luglio 2024 03:50 tempo osservato: Sereno Sereno 17 93 1013 vento: Nord N 5.5
22 Luglio 2024 03:20 tempo osservato: Sereno Sereno 17 93 1013 vento: Nord SO 11.1
22 Luglio 2024 02:50 tempo osservato: Sereno Sereno 17 93 1013 vento: Nord S/SO 9.3
22 Luglio 2024 02:20 tempo osservato: Sereno Sereno 18 88 1013 vento: Nord S/SO 9.3
22 Luglio 2024 01:50 tempo osservato: Sereno Sereno 18 93 1013 vento: Nord S/SO 13
22 Luglio 2024 01:20 tempo osservato: Poco Nuvoloso Poco Nuvoloso 18 93 1013 vento: Nord SO 9.3
22 Luglio 2024 00:50 tempo osservato: Sereno Sereno 18 100 1013 vento: Nord SO 7.4
22 Luglio 2024 00:20 tempo osservato: Sereno Sereno 19 93 1013 vento: Nord S/SO 9.3
21 Luglio 2024 23:50 tempo osservato: Poco Nuvoloso Poco Nuvoloso 19 100 1012 vento: Nord N 5.5
21 Luglio 2024 23:20 tempo osservato: Sereno Sereno 20 93 1012 vento: Nord N 3.7
21 Luglio 2024 22:50 tempo osservato: Sereno Sereno 21 94 1012 vento: Nord N 3.7
21 Luglio 2024 22:20 tempo osservato: Sereno Sereno 21 94 1011 vento: Nord N 5.5
21 Luglio 2024 21:50 tempo osservato: Sereno Sereno 22 88 1011 vento: Nord N 3.7
21 Luglio 2024 21:20 tempo osservato: Sereno Sereno 22 83 1011 vento: Nord N 1.8
21 Luglio 2024 20:50 tempo osservato: Sereno Sereno 24 69 1010 vento: Nord N 3.7
21 Luglio 2024 20:20 tempo osservato: Sereno Sereno 24 73 1010 vento: Nord N 5.5
21 Luglio 2024 19:50 tempo osservato: Sereno Sereno 25 73 1011 vento: Nord N 5.5
21 Luglio 2024 19:20 tempo osservato: Poco Nuvoloso Poco Nuvoloso 25 73 1010 vento: Nord N 5.5
21 Luglio 2024 18:50 tempo osservato: Sereno Sereno 25 73 1011 vento: Nord O/SO 7.4
21 Luglio 2024 18:20 tempo osservato: Poco Nuvoloso Poco Nuvoloso 24 83 1011 vento: Nord N 5.5
21 Luglio 2024 17:50 tempo osservato: Nuvoloso Nuvoloso 24 83 1011 vento: Nord E/SE 7.4
21 Luglio 2024 17:20 tempo osservato: Nuvoloso Nuvoloso 25 78 1011 vento: Nord N 5.5
21 Luglio 2024 16:50 tempo osservato: Nuvoloso Nuvoloso 24 83 1011 vento: Nord N 3.7
21 Luglio 2024 16:20 tempo osservato: Pioggia Pioggia 22 94 1011 vento: Nord N 5.5
21 Luglio 2024 15:50 tempo osservato: Temporale Temporale 23 88 1011 vento: Nord NE 9.3
21 Luglio 2024 15:20 tempo osservato: Temporale Temporale 24 78 1011 vento: Nord N/NO 7.4
21 Luglio 2024 14:50 tempo osservato: Temporale nelle vicinanze Temporale nelle vicinanze 26 65 1011 vento: Nord N 13
21 Luglio 2024 14:20 tempo osservato: Nuvoloso Nuvoloso 26 69 1011 vento: Nord N 13
21 Luglio 2024 13:50 tempo osservato: Pioggia Pioggia 26 65 1010 vento: Nord N 16.7